sensor_id;sensor_type;location;lat;lon;timestamp;P1;durP1;ratioP1;P2;durP2;ratioP2
6757;SDS011;3416;53.074;8.822;2023-07-22T00:00:07;12.32;;;9.57;;
6757;SDS011;3416;53.074;8.822;2023-07-22T00:02:39;14.32;;;10.27;;
6757;SDS011;3416;53.074;8.822;2023-07-22T00:05:07;12.52;;;9.40;;
6757;SDS011;3416;53.074;8.822;2023-07-22T00:07:35;12.15;;;9.27;;
6757;SDS011;3416;53.074;8.822;2023-07-22T00:10:02;13.85;;;9.45;;
6757;SDS011;3416;53.074;8.822;2023-07-22T00:12:31;11.95;;;9.18;;
6757;SDS011;3416;53.074;8.822;2023-07-22T00:15:00;13.02;;;8.98;;
6757;SDS011;3416;53.074;8.822;2023-07-22T00:17:27;12.68;;;9.27;;
6757;SDS011;3416;53.074;8.822;2023-07-22T00:19:54;11.70;;;9.63;;
6757;SDS011;3416;53.074;8.822;2023-07-22T00:22:21;10.60;;;9.45;;
6757;SDS011;3416;53.074;8.822;2023-07-22T00:24:49;19.40;;;10.15;;
6757;SDS011;3416;53.074;8.822;2023-07-22T00:27:16;13.23;;;9.90;;
6757;SDS011;3416;53.074;8.822;2023-07-22T00:29:44;12.70;;;9.82;;
6757;SDS011;3416;53.074;8.822;2023-07-22T00:32:11;15.55;;;10.95;;
6757;SDS011;3416;53.074;8.822;2023-07-22T00:34:40;12.40;;;9.23;;
6757;SDS011;3416;53.074;8.822;2023-07-22T00:37:07;17.70;;;11.20;;
6757;SDS011;3416;53.074;8.822;2023-07-22T00:39:34;14.40;;;9.73;;
6757;SDS011;3416;53.074;8.822;2023-07-22T00:42:01;12.40;;;9.25;;
6757;SDS011;3416;53.074;8.822;2023-07-22T00:44:28;12.32;;;9.30;;
6757;SDS011;3416;53.074;8.822;2023-07-22T00:46:56;15.02;;;12.70;;
6757;SDS011;3416;53.074;8.822;2023-07-22T00:49:23;14.90;;;12.18;;
6757;SDS011;3416;53.074;8.822;2023-07-22T00:51:52;12.68;;;9.95;;
6757;SDS011;3416;53.074;8.822;2023-07-22T00:54:19;13.95;;;10.05;;
6757;SDS011;3416;53.074;8.822;2023-07-22T00:56:46;16.95;;;10.38;;
6757;SDS011;3416;53.074;8.822;2023-07-22T00:59:14;13.73;;;9.50;;
6757;SDS011;3416;53.074;8.822;2023-07-22T01:01:42;13.60;;;9.85;;
6757;SDS011;3416;53.074;8.822;2023-07-22T01:04:13;12.00;;;8.63;;
6757;SDS011;3416;53.074;8.822;2023-07-22T01:06:42;13.80;;;10.13;;
6757;SDS011;3416;53.074;8.822;2023-07-22T01:09:11;16.83;;;10.45;;
6757;SDS011;3416;53.074;8.822;2023-07-22T01:11:38;15.07;;;10.45;;
6757;SDS011;3416;53.074;8.822;2023-07-22T01:14:05;20.48;;;10.60;;
6757;SDS011;3416;53.074;8.822;2023-07-22T01:16:33;13.23;;;10.45;;
6757;SDS011;3416;53.074;8.822;2023-07-22T01:19:00;13.32;;;9.50;;
6757;SDS011;3416;53.074;8.822;2023-07-22T01:21:31;12.95;;;9.35;;
6757;SDS011;3416;53.074;8.822;2023-07-22T01:24:00;14.02;;;8.25;;
6757;SDS011;3416;53.074;8.822;2023-07-22T01:26:28;11.32;;;8.98;;
6757;SDS011;3416;53.074;8.822;2023-07-22T01:29:04;14.23;;;9.00;;
6757;SDS011;3416;53.074;8.822;2023-07-22T01:31:33;14.02;;;8.75;;
6757;SDS011;3416;53.074;8.822;2023-07-22T01:34:02;16.10;;;9.65;;
6757;SDS011;3416;53.074;8.822;2023-07-22T01:36:30;14.10;;;9.85;;
6757;SDS011;3416;53.074;8.822;2023-07-22T01:38:58;12.77;;;9.40;;
6757;SDS011;3416;53.074;8.822;2023-07-22T01:41:27;11.10;;;8.18;;
6757;SDS011;3416;53.074;8.822;2023-07-22T01:43:54;12.48;;;8.63;;
6757;SDS011;3416;53.074;8.822;2023-07-22T01:46:21;15.57;;;10.27;;
6757;SDS011;3416;53.074;8.822;2023-07-22T01:48:47;10.60;;;8.07;;
6757;SDS011;3416;53.074;8.822;2023-07-22T01:51:14;14.10;;;8.20;;
6757;SDS011;3416;53.074;8.822;2023-07-22T01:53:41;13.80;;;8.27;;
6757;SDS011;3416;53.074;8.822;2023-07-22T01:56:09;13.65;;;8.15;;
6757;SDS011;3416;53.074;8.822;2023-07-22T01:58:37;14.95;;;9.45;;
6757;SDS011;3416;53.074;8.822;2023-07-22T02:01:04;13.35;;;8.30;;
6757;SDS011;3416;53.074;8.822;2023-07-22T02:03:32;16.20;;;8.45;;
6757;SDS011;3416;53.074;8.822;2023-07-22T02:06:02;13.07;;;8.02;;
6757;SDS011;3416;53.074;8.822;2023-07-22T02:08:30;17.20;;;9.32;;
6757;SDS011;3416;53.074;8.822;2023-07-22T02:10:59;14.18;;;8.93;;
6757;SDS011;3416;53.074;8.822;2023-07-22T02:13:28;14.10;;;8.43;;
6757;SDS011;3416;53.074;8.822;2023-07-22T02:15:57;11.75;;;7.25;;
6757;SDS011;3416;53.074;8.822;2023-07-22T02:18:24;16.00;;;7.30;;
6757;SDS011;3416;53.074;8.822;2023-07-22T02:20:51;11.55;;;8.07;;
6757;SDS011;3416;53.074;8.822;2023-07-22T02:23:18;14.82;;;8.40;;
6757;SDS011;3416;53.074;8.822;2023-07-22T02:25:48;13.05;;;7.38;;
6757;SDS011;3416;53.074;8.822;2023-07-22T02:28:15;13.07;;;8.68;;
6757;SDS011;3416;53.074;8.822;2023-07-22T02:30:46;13.98;;;8.20;;
6757;SDS011;3416;53.074;8.822;2023-07-22T02:33:15;12.60;;;8.20;;
6757;SDS011;3416;53.074;8.822;2023-07-22T02:35:42;12.40;;;8.27;;
6757;SDS011;3416;53.074;8.822;2023-07-22T02:38:09;12.05;;;7.70;;
6757;SDS011;3416;53.074;8.822;2023-07-22T02:40:36;12.05;;;8.27;;
6757;SDS011;3416;53.074;8.822;2023-07-22T02:43:04;14.27;;;9.10;;
6757;SDS011;3416;53.074;8.822;2023-07-22T02:45:32;16.35;;;8.85;;
6757;SDS011;3416;53.074;8.822;2023-07-22T02:47:59;16.90;;;9.88;;
6757;SDS011;3416;53.074;8.822;2023-07-22T02:50:27;12.25;;;9.05;;
6757;SDS011;3416;53.074;8.822;2023-07-22T02:52:54;10.10;;;7.75;;
6757;SDS011;3416;53.074;8.822;2023-07-22T02:55:22;11.30;;;7.82;;
6757;SDS011;3416;53.074;8.822;2023-07-22T02:57:50;12.32;;;9.07;;
6757;SDS011;3416;53.074;8.822;2023-07-22T03:00:17;18.90;;;9.15;;
6757;SDS011;3416;53.074;8.822;2023-07-22T03:02:48;14.73;;;9.93;;
6757;SDS011;3416;53.074;8.822;2023-07-22T03:05:17;19.40;;;11.55;;
6757;SDS011;3416;53.074;8.822;2023-07-22T03:07:46;12.40;;;7.18;;
6757;SDS011;3416;53.074;8.822;2023-07-22T03:10:13;12.88;;;9.25;;
6757;SDS011;3416;53.074;8.822;2023-07-22T03:12:40;10.57;;;7.53;;
6757;SDS011;3416;53.074;8.822;2023-07-22T03:15:07;18.63;;;9.13;;
6757;SDS011;3416;53.074;8.822;2023-07-22T03:17:34;13.07;;;8.23;;
6757;SDS011;3416;53.074;8.822;2023-07-22T03:20:02;13.85;;;8.95;;
6757;SDS011;3416;53.074;8.822;2023-07-22T03:22:34;13.45;;;8.32;;
6757;SDS011;3416;53.074;8.822;2023-07-22T03:25:02;12.38;;;9.10;;
6757;SDS011;3416;53.074;8.822;2023-07-22T03:27:33;14.77;;;10.10;;
6757;SDS011;3416;53.074;8.822;2023-07-22T03:30:00;12.02;;;8.98;;
6757;SDS011;3416;53.074;8.822;2023-07-22T03:32:28;12.02;;;8.13;;
6757;SDS011;3416;53.074;8.822;2023-07-22T03:34:55;10.70;;;7.72;;
6757;SDS011;3416;53.074;8.822;2023-07-22T03:37:22;11.45;;;7.97;;
6757;SDS011;3416;53.074;8.822;2023-07-22T03:39:49;17.35;;;9.00;;
6757;SDS011;3416;53.074;8.822;2023-07-22T03:42:17;13.93;;;8.15;;
6757;SDS011;3416;53.074;8.822;2023-07-22T03:44:44;11.02;;;8.45;;
6757;SDS011;3416;53.074;8.822;2023-07-22T03:47:11;18.27;;;9.45;;
6757;SDS011;3416;53.074;8.822;2023-07-22T03:49:38;14.00;;;8.45;;
6757;SDS011;3416;53.074;8.822;2023-07-22T03:52:05;12.43;;;7.97;;
6757;SDS011;3416;53.074;8.822;2023-07-22T03:54:33;13.35;;;9.70;;
6757;SDS011;3416;53.074;8.822;2023-07-22T03:57:00;8.82;;;7.20;;
6757;SDS011;3416;53.074;8.822;2023-07-22T03:59:28;13.27;;;8.15;;
6757;SDS011;3416;53.074;8.822;2023-07-22T04:01:54;14.40;;;8.48;;
6757;SDS011;3416;53.074;8.822;2023-07-22T04:04:21;12.13;;;8.15;;
6757;SDS011;3416;53.074;8.822;2023-07-22T04:06:48;14.93;;;8.70;;
6757;SDS011;3416;53.074;8.822;2023-07-22T04:09:16;16.50;;;7.95;;
6757;SDS011;3416;53.074;8.822;2023-07-22T04:11:43;12.88;;;8.18;;
6757;SDS011;3416;53.074;8.822;2023-07-22T04:14:09;10.93;;;8.02;;
6757;SDS011;3416;53.074;8.822;2023-07-22T04:16:39;12.20;;;8.60;;
6757;SDS011;3416;53.074;8.822;2023-07-22T04:19:05;13.95;;;7.50;;
6757;SDS011;3416;53.074;8.822;2023-07-22T04:21:32;13.23;;;9.57;;
6757;SDS011;3416;53.074;8.822;2023-07-22T04:23:59;19.10;;;8.82;;
6757;SDS011;3416;53.074;8.822;2023-07-22T04:26:26;14.50;;;8.75;;
6757;SDS011;3416;53.074;8.822;2023-07-22T04:28:54;11.88;;;7.57;;
6757;SDS011;3416;53.074;8.822;2023-07-22T04:31:22;12.18;;;8.38;;
6757;SDS011;3416;53.074;8.822;2023-07-22T04:33:50;13.65;;;7.72;;
6757;SDS011;3416;53.074;8.822;2023-07-22T04:36:17;10.88;;;6.95;;
6757;SDS011;3416;53.074;8.822;2023-07-22T04:38:44;13.23;;;7.75;;
6757;SDS011;3416;53.074;8.822;2023-07-22T04:41:11;11.13;;;7.00;;
6757;SDS011;3416;53.074;8.822;2023-07-22T04:43:37;13.30;;;8.20;;
6757;SDS011;3416;53.074;8.822;2023-07-22T04:46:05;8.73;;;6.20;;
6757;SDS011;3416;53.074;8.822;2023-07-22T04:48:33;9.17;;;6.10;;
6757;SDS011;3416;53.074;8.822;2023-07-22T04:51:03;10.30;;;6.30;;
6757;SDS011;3416;53.074;8.822;2023-07-22T04:53:31;9.70;;;7.30;;
6757;SDS011;3416;53.074;8.822;2023-07-22T04:55:58;8.30;;;6.40;;
6757;SDS011;3416;53.074;8.822;2023-07-22T04:58:25;10.03;;;6.17;;
6757;SDS011;3416;53.074;8.822;2023-07-22T05:00:52;12.60;;;6.37;;
6757;SDS011;3416;53.074;8.822;2023-07-22T05:03:19;13.57;;;7.47;;
6757;SDS011;3416;53.074;8.822;2023-07-22T05:05:46;7.80;;;6.10;;
6757;SDS011;3416;53.074;8.822;2023-07-22T05:08:15;15.40;;;7.50;;
6757;SDS011;3416;53.074;8.822;2023-07-22T05:10:42;8.63;;;6.03;;
6757;SDS011;3416;53.074;8.822;2023-07-22T05:13:09;9.00;;;5.43;;
6757;SDS011;3416;53.074;8.822;2023-07-22T05:15:35;7.90;;;6.10;;
6757;SDS011;3416;53.074;8.822;2023-07-22T05:18:02;13.63;;;6.77;;
6757;SDS011;3416;53.074;8.822;2023-07-22T05:20:29;9.23;;;5.90;;
6757;SDS011;3416;53.074;8.822;2023-07-22T05:22:56;12.53;;;5.33;;
6757;SDS011;3416;53.074;8.822;2023-07-22T05:25:25;9.77;;;5.80;;
6757;SDS011;3416;53.074;8.822;2023-07-22T05:27:52;12.20;;;7.43;;
6757;SDS011;3416;53.074;8.822;2023-07-22T05:30:19;22.10;;;14.40;;
6757;SDS011;3416;53.074;8.822;2023-07-22T05:32:46;12.13;;;8.60;;
6757;SDS011;3416;53.074;8.822;2023-07-22T05:35:13;11.40;;;6.50;;
6757;SDS011;3416;53.074;8.822;2023-07-22T05:37:40;10.17;;;7.43;;
6757;SDS011;3416;53.074;8.822;2023-07-22T05:40:07;12.83;;;7.97;;
6757;SDS011;3416;53.074;8.822;2023-07-22T05:42:36;24.40;;;17.10;;
6757;SDS011;3416;53.074;8.822;2023-07-22T05:45:03;12.83;;;8.37;;
6757;SDS011;3416;53.074;8.822;2023-07-22T05:47:31;12.20;;;8.40;;
6757;SDS011;3416;53.074;8.822;2023-07-22T05:49:58;10.70;;;7.67;;
6757;SDS011;3416;53.074;8.822;2023-07-22T05:52:25;9.60;;;6.00;;
6757;SDS011;3416;53.074;8.822;2023-07-22T05:54:52;11.87;;;7.03;;
6757;SDS011;3416;53.074;8.822;2023-07-22T05:57:19;19.17;;;10.20;;
6757;SDS011;3416;53.074;8.822;2023-07-22T05:59:47;10.23;;;6.33;;
6757;SDS011;3416;53.074;8.822;2023-07-22T06:02:14;10.67;;;6.23;;
6757;SDS011;3416;53.074;8.822;2023-07-22T06:04:43;12.20;;;7.60;;
6757;SDS011;3416;53.074;8.822;2023-07-22T06:07:10;17.40;;;6.73;;
6757;SDS011;3416;53.074;8.822;2023-07-22T06:09:44;12.50;;;7.87;;
6757;SDS011;3416;53.074;8.822;2023-07-22T06:12:11;11.20;;;5.93;;
6757;SDS011;3416;53.074;8.822;2023-07-22T06:14:39;7.33;;;5.60;;
6757;SDS011;3416;53.074;8.822;2023-07-22T06:17:07;8.10;;;5.50;;
6757;SDS011;3416;53.074;8.822;2023-07-22T06:19:34;8.90;;;6.20;;
6757;SDS011;3416;53.074;8.822;2023-07-22T06:22:01;7.00;;;5.60;;
6757;SDS011;3416;53.074;8.822;2023-07-22T06:24:29;9.53;;;7.50;;
6757;SDS011;3416;53.074;8.822;2023-07-22T06:26:56;18.93;;;16.27;;
6757;SDS011;3416;53.074;8.822;2023-07-22T06:29:23;14.90;;;12.40;;
6757;SDS011;3416;53.074;8.822;2023-07-22T06:31:50;9.47;;;6.13;;
6757;SDS011;3416;53.074;8.822;2023-07-22T06:34:18;15.43;;;9.70;;
6757;SDS011;3416;53.074;8.822;2023-07-22T06:36:45;10.07;;;7.10;;
6757;SDS011;3416;53.074;8.822;2023-07-22T06:39:12;9.33;;;5.40;;
6757;SDS011;3416;53.074;8.822;2023-07-22T06:41:39;8.43;;;4.73;;
6757;SDS011;3416;53.074;8.822;2023-07-22T06:44:06;8.47;;;5.47;;
6757;SDS011;3416;53.074;8.822;2023-07-22T06:46:33;14.27;;;6.03;;
6757;SDS011;3416;53.074;8.822;2023-07-22T06:49:00;6.60;;;4.93;;
6757;SDS011;3416;53.074;8.822;2023-07-22T06:51:29;12.10;;;6.00;;
6757;SDS011;3416;53.074;8.822;2023-07-22T06:53:56;7.40;;;5.17;;
6757;SDS011;3416;53.074;8.822;2023-07-22T06:56:23;11.77;;;6.43;;
6757;SDS011;3416;53.074;8.822;2023-07-22T06:58:51;7.10;;;5.07;;
6757;SDS011;3416;53.074;8.822;2023-07-22T07:01:18;18.70;;;11.60;;
6757;SDS011;3416;53.074;8.822;2023-07-22T07:03:45;7.40;;;5.60;;
6757;SDS011;3416;53.074;8.822;2023-07-22T07:06:11;10.53;;;6.30;;
6757;SDS011;3416;53.074;8.822;2023-07-22T07:08:40;5.83;;;4.60;;
6757;SDS011;3416;53.074;8.822;2023-07-22T07:11:06;18.73;;;11.47;;
6757;SDS011;3416;53.074;8.822;2023-07-22T07:13:34;8.77;;;5.60;;
6757;SDS011;3416;53.074;8.822;2023-07-22T07:18:46;9.00;;;5.90;;
6757;SDS011;3416;53.074;8.822;2023-07-22T07:21:13;10.30;;;7.83;;
6757;SDS011;3416;53.074;8.822;2023-07-22T07:23:41;5.90;;;3.73;;
6757;SDS011;3416;53.074;8.822;2023-07-22T07:26:08;7.80;;;5.60;;
6757;SDS011;3416;53.074;8.822;2023-07-22T07:28:35;7.03;;;4.90;;
6757;SDS011;3416;53.074;8.822;2023-07-22T07:31:02;7.73;;;5.50;;
6757;SDS011;3416;53.074;8.822;2023-07-22T07:33:29;9.33;;;6.30;;
6757;SDS011;3416;53.074;8.822;2023-07-22T07:35:55;11.23;;;7.00;;
6757;SDS011;3416;53.074;8.822;2023-07-22T07:38:22;8.63;;;5.20;;
6757;SDS011;3416;53.074;8.822;2023-07-22T07:40:52;9.10;;;5.47;;
6757;SDS011;3416;53.074;8.822;2023-07-22T07:43:19;8.90;;;4.93;;
6757;SDS011;3416;53.074;8.822;2023-07-22T07:45:46;6.70;;;4.40;;
6757;SDS011;3416;53.074;8.822;2023-07-22T07:48:13;10.80;;;5.70;;
6757;SDS011;3416;53.074;8.822;2023-07-22T07:50:41;5.70;;;4.27;;
6757;SDS011;3416;53.074;8.822;2023-07-22T07:53:08;8.53;;;4.40;;
6757;SDS011;3416;53.074;8.822;2023-07-22T07:55:35;6.63;;;4.37;;
6757;SDS011;3416;53.074;8.822;2023-07-22T07:58:03;9.47;;;6.73;;
6757;SDS011;3416;53.074;8.822;2023-07-22T08:00:30;20.73;;;12.47;;
6757;SDS011;3416;53.074;8.822;2023-07-22T08:02:58;10.07;;;8.03;;
6757;SDS011;3416;53.074;8.822;2023-07-22T08:05:25;11.17;;;7.43;;
6757;SDS011;3416;53.074;8.822;2023-07-22T08:07:51;9.33;;;5.63;;
6757;SDS011;3416;53.074;8.822;2023-07-22T08:10:18;10.90;;;4.80;;
6757;SDS011;3416;53.074;8.822;2023-07-22T08:12:45;9.93;;;5.27;;
6757;SDS011;3416;53.074;8.822;2023-07-22T08:15:14;10.77;;;5.10;;
6757;SDS011;3416;53.074;8.822;2023-07-22T08:17:41;5.73;;;3.90;;
6757;SDS011;3416;53.074;8.822;2023-07-22T08:20:09;7.00;;;4.77;;
6757;SDS011;3416;53.074;8.822;2023-07-22T08:22:36;4.53;;;3.63;;
6757;SDS011;3416;53.074;8.822;2023-07-22T08:25:04;6.50;;;4.10;;
6757;SDS011;3416;53.074;8.822;2023-07-22T08:27:31;7.20;;;4.60;;
6757;SDS011;3416;53.074;8.822;2023-07-22T08:29:58;4.77;;;4.17;;
6757;SDS011;3416;53.074;8.822;2023-07-22T08:32:26;6.13;;;4.27;;
6757;SDS011;3416;53.074;8.822;2023-07-22T08:34:54;4.63;;;4.10;;
6757;SDS011;3416;53.074;8.822;2023-07-22T08:37:21;12.33;;;8.83;;
6757;SDS011;3416;53.074;8.822;2023-07-22T08:39:48;22.27;;;13.90;;
6757;SDS011;3416;53.074;8.822;2023-07-22T08:42:15;8.10;;;5.90;;
6757;SDS011;3416;53.074;8.822;2023-07-22T08:44:46;8.33;;;5.83;;
6757;SDS011;3416;53.074;8.822;2023-07-22T08:47:16;14.00;;;8.83;;
6757;SDS011;3416;53.074;8.822;2023-07-22T08:49:49;7.97;;;5.73;;
6757;SDS011;3416;53.074;8.822;2023-07-22T08:52:18;10.50;;;5.03;;
6757;SDS011;3416;53.074;8.822;2023-07-22T08:54:45;9.70;;;5.13;;
6757;SDS011;3416;53.074;8.822;2023-07-22T08:57:13;8.50;;;5.37;;
6757;SDS011;3416;53.074;8.822;2023-07-22T08:59:41;10.40;;;5.60;;
6757;SDS011;3416;53.074;8.822;2023-07-22T09:02:09;7.13;;;5.53;;
6757;SDS011;3416;53.074;8.822;2023-07-22T09:04:38;9.30;;;5.00;;
6757;SDS011;3416;53.074;8.822;2023-07-22T09:07:07;8.03;;;5.00;;
6757;SDS011;3416;53.074;8.822;2023-07-22T09:09:35;6.37;;;5.30;;
6757;SDS011;3416;53.074;8.822;2023-07-22T09:12:03;11.27;;;5.80;;
6757;SDS011;3416;53.074;8.822;2023-07-22T09:14:32;10.53;;;6.10;;
6757;SDS011;3416;53.074;8.822;2023-07-22T09:17:00;9.50;;;5.73;;
6757;SDS011;3416;53.074;8.822;2023-07-22T09:19:27;7.60;;;6.40;;
6757;SDS011;3416;53.074;8.822;2023-07-22T09:21:56;7.10;;;5.67;;
6757;SDS011;3416;53.074;8.822;2023-07-22T09:24:25;9.90;;;7.00;;
6757;SDS011;3416;53.074;8.822;2023-07-22T09:26:54;8.77;;;6.40;;
6757;SDS011;3416;53.074;8.822;2023-07-22T09:29:32;8.10;;;6.37;;
6757;SDS011;3416;53.074;8.822;2023-07-22T09:32:00;9.47;;;6.00;;
6757;SDS011;3416;53.074;8.822;2023-07-22T09:34:28;10.60;;;7.73;;
6757;SDS011;3416;53.074;8.822;2023-07-22T09:36:55;10.77;;;6.40;;
6757;SDS011;3416;53.074;8.822;2023-07-22T09:39:26;8.63;;;7.00;;
6757;SDS011;3416;53.074;8.822;2023-07-22T09:41:53;11.10;;;6.87;;
6757;SDS011;3416;53.074;8.822;2023-07-22T09:44:20;12.93;;;7.73;;
6757;SDS011;3416;53.074;8.822;2023-07-22T09:46:48;9.07;;;6.87;;
6757;SDS011;3416;53.074;8.822;2023-07-22T09:49:16;10.10;;;6.90;;
6757;SDS011;3416;53.074;8.822;2023-07-22T09:51:44;10.20;;;7.50;;
6757;SDS011;3416;53.074;8.822;2023-07-22T09:54:11;9.30;;;7.27;;
6757;SDS011;3416;53.074;8.822;2023-07-22T09:56:46;10.67;;;7.60;;
6757;SDS011;3416;53.074;8.822;2023-07-22T09:59:13;10.50;;;8.43;;
6757;SDS011;3416;53.074;8.822;2023-07-22T10:01:41;9.33;;;7.47;;
6757;SDS011;3416;53.074;8.822;2023-07-22T10:04:11;10.33;;;7.70;;
6757;SDS011;3416;53.074;8.822;2023-07-22T10:06:41;10.40;;;7.50;;
6757;SDS011;3416;53.074;8.822;2023-07-22T10:09:10;11.93;;;7.50;;
6757;SDS011;3416;53.074;8.822;2023-07-22T10:11:37;10.80;;;6.77;;
6757;SDS011;3416;53.074;8.822;2023-07-22T10:14:07;11.40;;;7.17;;
6757;SDS011;3416;53.074;8.822;2023-07-22T10:16:34;7.87;;;6.20;;
6757;SDS011;3416;53.074;8.822;2023-07-22T10:19:02;9.93;;;7.00;;
6757;SDS011;3416;53.074;8.822;2023-07-22T10:21:31;8.83;;;7.07;;
6757;SDS011;3416;53.074;8.822;2023-07-22T10:24:00;11.50;;;7.07;;
6757;SDS011;3416;53.074;8.822;2023-07-22T10:26:27;12.20;;;8.43;;
6757;SDS011;3416;53.074;8.822;2023-07-22T10:28:54;10.93;;;7.43;;
6757;SDS011;3416;53.074;8.822;2023-07-22T10:31:24;12.57;;;7.13;;
6757;SDS011;3416;53.074;8.822;2023-07-22T10:33:51;9.70;;;7.00;;
6757;SDS011;3416;53.074;8.822;2023-07-22T10:36:18;11.07;;;7.33;;
6757;SDS011;3416;53.074;8.822;2023-07-22T10:38:46;9.00;;;7.80;;
6757;SDS011;3416;53.074;8.822;2023-07-22T10:41:22;11.73;;;7.73;;
6757;SDS011;3416;53.074;8.822;2023-07-22T10:43:58;14.53;;;7.50;;
6757;SDS011;3416;53.074;8.822;2023-07-22T10:46:33;8.03;;;6.53;;
6757;SDS011;3416;53.074;8.822;2023-07-22T10:49:08;13.30;;;6.37;;
6757;SDS011;3416;53.074;8.822;2023-07-22T10:51:37;7.60;;;6.00;;
6757;SDS011;3416;53.074;8.822;2023-07-22T10:54:10;6.77;;;5.50;;
6757;SDS011;3416;53.074;8.822;2023-07-22T10:56:40;8.20;;;5.53;;
6757;SDS011;3416;53.074;8.822;2023-07-22T10:59:09;6.73;;;4.83;;
6757;SDS011;3416;53.074;8.822;2023-07-22T11:01:38;8.77;;;5.17;;
6757;SDS011;3416;53.074;8.822;2023-07-22T11:04:13;7.10;;;5.33;;
6757;SDS011;3416;53.074;8.822;2023-07-22T11:06:54;7.17;;;5.37;;
6757;SDS011;3416;53.074;8.822;2023-07-22T11:09:40;8.70;;;5.77;;
6757;SDS011;3416;53.074;8.822;2023-07-22T11:12:13;7.63;;;5.60;;
6757;SDS011;3416;53.074;8.822;2023-07-22T11:14:45;7.90;;;5.97;;
6757;SDS011;3416;53.074;8.822;2023-07-22T11:17:15;8.20;;;5.40;;
6757;SDS011;3416;53.074;8.822;2023-07-22T11:19:44;7.40;;;5.60;;
6757;SDS011;3416;53.074;8.822;2023-07-22T11:22:11;7.47;;;5.93;;
6757;SDS011;3416;53.074;8.822;2023-07-22T11:24:38;7.80;;;7.00;;
6757;SDS011;3416;53.074;8.822;2023-07-22T11:27:06;9.20;;;6.13;;
6757;SDS011;3416;53.074;8.822;2023-07-22T11:29:34;6.43;;;4.67;;
6757;SDS011;3416;53.074;8.822;2023-07-22T11:32:02;6.50;;;4.93;;
6757;SDS011;3416;53.074;8.822;2023-07-22T11:34:30;6.67;;;5.60;;
6757;SDS011;3416;53.074;8.822;2023-07-22T11:36:57;8.60;;;5.53;;
6757;SDS011;3416;53.074;8.822;2023-07-22T11:39:26;6.17;;;5.27;;
6757;SDS011;3416;53.074;8.822;2023-07-22T11:41:56;6.97;;;5.03;;
6757;SDS011;3416;53.074;8.822;2023-07-22T11:44:30;6.90;;;5.10;;
6757;SDS011;3416;53.074;8.822;2023-07-22T11:46:58;6.17;;;5.23;;
6757;SDS011;3416;53.074;8.822;2023-07-22T11:49:26;12.43;;;8.20;;
6757;SDS011;3416;53.074;8.822;2023-07-22T11:51:57;8.43;;;5.33;;
6757;SDS011;3416;53.074;8.822;2023-07-22T11:54:26;9.00;;;6.03;;
6757;SDS011;3416;53.074;8.822;2023-07-22T11:56:54;8.53;;;5.63;;
6757;SDS011;3416;53.074;8.822;2023-07-22T11:59:34;6.17;;;4.83;;
6757;SDS011;3416;53.074;8.822;2023-07-22T12:02:03;5.80;;;5.13;;
6757;SDS011;3416;53.074;8.822;2023-07-22T12:04:31;5.43;;;4.40;;
6757;SDS011;3416;53.074;8.822;2023-07-22T12:06:59;8.57;;;5.70;;
6757;SDS011;3416;53.074;8.822;2023-07-22T12:09:28;8.57;;;4.93;;
6757;SDS011;3416;53.074;8.822;2023-07-22T12:11:55;5.33;;;4.80;;
6757;SDS011;3416;53.074;8.822;2023-07-22T12:14:23;5.37;;;4.87;;
6757;SDS011;3416;53.074;8.822;2023-07-22T12:16:52;6.10;;;4.77;;
6757;SDS011;3416;53.074;8.822;2023-07-22T12:19:22;5.83;;;4.40;;
6757;SDS011;3416;53.074;8.822;2023-07-22T12:21:49;8.43;;;5.13;;
6757;SDS011;3416;53.074;8.822;2023-07-22T12:24:17;9.30;;;5.10;;
6757;SDS011;3416;53.074;8.822;2023-07-22T12:26:44;6.50;;;4.80;;
6757;SDS011;3416;53.074;8.822;2023-07-22T12:29:11;6.50;;;5.53;;
6757;SDS011;3416;53.074;8.822;2023-07-22T12:31:38;6.77;;;4.83;;
6757;SDS011;3416;53.074;8.822;2023-07-22T12:34:04;6.87;;;4.83;;
6757;SDS011;3416;53.074;8.822;2023-07-22T12:36:31;9.13;;;6.37;;
6757;SDS011;3416;53.074;8.822;2023-07-22T12:38:58;9.50;;;5.20;;
6757;SDS011;3416;53.074;8.822;2023-07-22T12:41:26;6.77;;;5.40;;
6757;SDS011;3416;53.074;8.822;2023-07-22T12:43:53;6.07;;;4.97;;
6757;SDS011;3416;53.074;8.822;2023-07-22T12:46:19;8.47;;;6.43;;
6757;SDS011;3416;53.074;8.822;2023-07-22T12:48:46;10.10;;;6.90;;
6757;SDS011;3416;53.074;8.822;2023-07-22T12:51:13;8.13;;;6.63;;
6757;SDS011;3416;53.074;8.822;2023-07-22T12:53:40;6.93;;;5.63;;
6757;SDS011;3416;53.074;8.822;2023-07-22T12:56:07;6.70;;;5.60;;
6757;SDS011;3416;53.074;8.822;2023-07-22T12:58:35;6.63;;;5.40;;
6757;SDS011;3416;53.074;8.822;2023-07-22T13:01:02;10.90;;;6.77;;
6757;SDS011;3416;53.074;8.822;2023-07-22T13:03:29;9.60;;;7.10;;
6757;SDS011;3416;53.074;8.822;2023-07-22T13:05:56;9.80;;;8.77;;
6757;SDS011;3416;53.074;8.822;2023-07-22T13:08:23;14.30;;;9.00;;
6757;SDS011;3416;53.074;8.822;2023-07-22T13:10:49;13.17;;;8.50;;
6757;SDS011;3416;53.074;8.822;2023-07-22T13:13:16;17.00;;;10.40;;
6757;SDS011;3416;53.074;8.822;2023-07-22T13:15:44;12.90;;;9.30;;
6757;SDS011;3416;53.074;8.822;2023-07-22T13:18:11;13.17;;;10.47;;
6757;SDS011;3416;53.074;8.822;2023-07-22T13:20:39;13.03;;;10.47;;
6757;SDS011;3416;53.074;8.822;2023-07-22T13:23:06;15.87;;;11.43;;
6757;SDS011;3416;53.074;8.822;2023-07-22T13:25:32;15.67;;;11.50;;
6757;SDS011;3416;53.074;8.822;2023-07-22T13:27:59;15.90;;;11.40;;
6757;SDS011;3416;53.074;8.822;2023-07-22T13:30:26;19.43;;;12.73;;
6757;SDS011;3416;53.074;8.822;2023-07-22T13:32:55;17.07;;;13.80;;
6757;SDS011;3416;53.074;8.822;2023-07-22T13:35:22;19.73;;;12.20;;
6757;SDS011;3416;53.074;8.822;2023-07-22T13:37:48;14.47;;;11.80;;
6757;SDS011;3416;53.074;8.822;2023-07-22T13:40:15;15.57;;;12.70;;
6757;SDS011;3416;53.074;8.822;2023-07-22T13:42:42;21.40;;;14.17;;
6757;SDS011;3416;53.074;8.822;2023-07-22T13:45:09;19.70;;;15.50;;
6757;SDS011;3416;53.074;8.822;2023-07-22T13:47:38;16.43;;;12.53;;
6757;SDS011;3416;53.074;8.822;2023-07-22T13:50:06;16.77;;;12.07;;
6757;SDS011;3416;53.074;8.822;2023-07-22T13:52:33;16.83;;;12.90;;
6757;SDS011;3416;53.074;8.822;2023-07-22T13:55:00;16.80;;;12.07;;
6757;SDS011;3416;53.074;8.822;2023-07-22T13:57:27;20.23;;;12.90;;
6757;SDS011;3416;53.074;8.822;2023-07-22T13:59:54;16.53;;;13.33;;
6757;SDS011;3416;53.074;8.822;2023-07-22T14:02:21;15.43;;;12.63;;
6757;SDS011;3416;53.074;8.822;2023-07-22T14:04:48;17.27;;;11.67;;
6757;SDS011;3416;53.074;8.822;2023-07-22T14:07:16;20.00;;;14.20;;
6757;SDS011;3416;53.074;8.822;2023-07-22T14:09:43;18.67;;;12.33;;
6757;SDS011;3416;53.074;8.822;2023-07-22T14:12:09;19.27;;;13.47;;
6757;SDS011;3416;53.074;8.822;2023-07-22T14:14:37;16.30;;;12.30;;
6757;SDS011;3416;53.074;8.822;2023-07-22T14:17:04;17.77;;;14.67;;
6757;SDS011;3416;53.074;8.822;2023-07-22T14:19:32;17.17;;;12.70;;
6757;SDS011;3416;53.074;8.822;2023-07-22T14:21:59;18.50;;;14.77;;
6757;SDS011;3416;53.074;8.822;2023-07-22T14:24:27;17.43;;;13.37;;
6757;SDS011;3416;53.074;8.822;2023-07-22T14:26:53;21.13;;;17.13;;
6757;SDS011;3416;53.074;8.822;2023-07-22T14:53:04;31.03;;;22.33;;
6757;SDS011;3416;53.074;8.822;2023-07-22T14:55:31;37.57;;;27.20;;
6757;SDS011;3416;53.074;8.822;2023-07-22T14:57:58;27.87;;;19.03;;
6757;SDS011;3416;53.074;8.822;2023-07-22T15:00:25;19.93;;;17.60;;
6757;SDS011;3416;53.074;8.822;2023-07-22T15:02:52;25.40;;;19.10;;
6757;SDS011;3416;53.074;8.822;2023-07-22T15:05:21;21.03;;;15.83;;
6757;SDS011;3416;53.074;8.822;2023-07-22T15:07:48;23.23;;;17.17;;
6757;SDS011;3416;53.074;8.822;2023-07-22T15:10:16;18.47;;;16.47;;
6757;SDS011;3416;53.074;8.822;2023-07-22T15:12:43;19.40;;;14.80;;
6757;SDS011;3416;53.074;8.822;2023-07-22T15:15:10;18.30;;;16.27;;
6757;SDS011;3416;53.074;8.822;2023-07-22T15:17:38;17.23;;;15.43;;
6757;SDS011;3416;53.074;8.822;2023-07-22T15:20:05;28.10;;;18.30;;
6757;SDS011;3416;53.074;8.822;2023-07-22T15:22:33;18.20;;;14.93;;
6757;SDS011;3416;53.074;8.822;2023-07-22T15:24:59;17.07;;;13.83;;
6757;SDS011;3416;53.074;8.822;2023-07-22T15:27:28;21.23;;;16.57;;
6757;SDS011;3416;53.074;8.822;2023-07-22T15:29:54;18.07;;;14.60;;
6757;SDS011;3416;53.074;8.822;2023-07-22T15:32:21;18.20;;;16.40;;